Time;durP1;ratioP1;P1;durP2;ratioP2;P2;SDS_P1;SDS_P2;PMS_P1;PMS_P2;Temp;Humidity;BMP_temperature;BMP_pressure;BME280_temperature;BME280_humidity;BME280_pressure;Samples;Min_cycle;Max_cycle;Signal;HPM_P1;HPM_P2
2022/10/12 00:01:39;;;;;;;13.43;12.03;;;15.80;99.00;;;;;;5099797;28;20459;-44
2022/10/12 00:04:05;;;;;;;14.70;13.30;;;15.80;99.50;;;;;;5099657;28;20265;-44
2022/10/12 00:06:31;;;;;;;14.90;13.33;;;15.80;99.00;;;;;;5098222;28;20472;-45
2022/10/12 00:08:56;;;;;;;15.87;14.27;;;15.90;98.80;;;;;;5097378;28;20181;-45
2022/10/12 00:11:27;;;;;;;14.87;13.47;;;15.80;98.60;;;;;;5099323;28;20604;-43
2022/10/12 00:13:54;;;;;;;14.70;13.33;;;15.80;98.50;;;;;;5099348;28;20578;-44
2022/10/12 00:16:21;;;;;;;15.03;13.43;;;15.80;98.50;;;;;;5098812;28;20463;-44
2022/10/12 00:18:54;;;;;;;15.07;13.20;;;15.80;98.60;;;;;;5098992;28;20792;-46
2022/10/12 00:21:20;;;;;;;15.70;14.03;;;15.70;98.50;;;;;;5097299;28;20838;-48
2022/10/12 00:23:46;;;;;;;17.00;14.67;;;15.70;98.60;;;;;;5099179;28;20719;-45
2022/10/12 00:26:22;;;;;;;15.37;13.83;;;15.70;98.60;;;;;;5098320;28;20410;-46
2022/10/12 00:28:48;;;;;;;15.73;14.23;;;15.60;98.60;;;;;;5099252;28;20437;-44
2022/10/12 00:31:16;;;;;;;16.17;14.30;;;15.60;98.60;;;;;;5099016;28;20412;-44
2022/10/12 00:33:43;;;;;;;15.30;13.70;;;15.60;98.70;;;;;;5099300;28;20518;-46
2022/10/12 00:36:18;;;;;;;15.03;13.40;;;15.60;98.70;;;;;;5099532;28;20809;-43
2022/10/12 00:38:44;;;;;;;16.10;14.50;;;15.60;98.80;;;;;;5098694;28;20423;-44
2022/10/12 00:41:11;;;;;;;16.10;14.20;;;15.50;98.70;;;;;;5099389;28;20848;-45
2022/10/12 00:43:40;;;;;;;15.67;14.17;;;15.50;98.70;;;;;;5098781;28;20415;-45
2022/10/12 00:46:13;;;;;;;18.10;15.67;;;15.50;98.80;;;;;;5099242;28;20426;-43
2022/10/12 00:48:39;;;;;;;15.97;14.37;;;15.50;98.80;;;;;;5098208;28;20476;-45
2022/10/12 00:51:05;;;;;;;16.40;14.70;;;15.40;98.70;;;;;;5099245;28;20430;-44
2022/10/12 00:53:34;;;;;;;17.60;15.00;;;15.40;98.80;;;;;;5098321;28;20422;-44
2022/10/12 00:56:02;;;;;;;16.10;13.70;;;15.40;98.80;;;;;;5098278;28;20284;-42
2022/10/12 00:58:31;;;;;;;15.73;13.63;;;15.30;98.80;;;;;;5098588;28;20479;-47
2022/10/12 01:01:01;;;;;;;17.50;15.70;;;15.30;98.90;;;;;;5098051;28;20426;-45
2022/10/12 01:03:27;;;;;;;16.27;14.60;;;15.30;98.90;;;;;;5098596;28;20696;-43
2022/10/12 01:05:53;;;;;;;16.97;14.83;;;15.30;98.90;;;;;;5097687;28;20454;-43
2022/10/12 01:08:20;;;;;;;15.87;14.27;;;15.30;98.90;;;;;;5098275;28;20491;-47
2022/10/12 01:10:46;;;;;;;17.70;15.10;;;15.30;99.00;;;;;;5097838;28;20442;-42
2022/10/12 01:13:12;;;;;;;15.30;13.73;;;15.20;98.90;;;;;;5097644;28;20423;-44
2022/10/12 01:16:01;;;;;;;14.67;13.30;;;15.20;98.90;;;;;;5098933;28;20212;-45
2022/10/12 01:18:45;;;;;;;15.33;13.83;;;15.10;98.90;;;;;;5097894;28;20423;-43
2022/10/12 01:21:23;;;;;;;15.63;14.00;;;15.10;98.90;;;;;;5097071;28;20430;-44
2022/10/12 01:24:14;;;;;;;14.60;13.10;;;15.10;99.00;;;;;;5097919;28;20821;-46
2022/10/12 01:27:12;;;;;;;15.07;13.63;;;15.10;99.00;;;;;;5097479;28;20531;-45
2022/10/12 01:29:56;;;;;;;18.00;14.07;;;15.10;99.10;;;;;;5096736;28;20407;-44
2022/10/12 01:32:37;;;;;;;16.87;15.13;;;15.10;99.10;;;;;;5097392;28;20502;-46
2022/10/12 01:35:09;;;;;;;16.67;15.03;;;15.00;99.10;;;;;;5096990;28;20499;-47
2022/10/12 01:37:56;;;;;;;17.60;15.37;;;15.00;99.20;;;;;;5092268;28;20469;-45
2022/10/12 01:40:44;;;;;;;15.73;14.13;;;15.00;99.20;;;;;;5095577;28;20427;-43
2022/10/12 01:43:10;;;;;;;17.63;14.80;;;15.00;99.20;;;;;;5088295;28;20419;-42
2022/10/12 01:45:36;;;;;;;16.37;14.67;;;15.00;99.20;;;;;;5094162;28;20431;-43
2022/10/12 01:48:02;;;;;;;19.77;14.87;;;14.90;99.10;;;;;;5095222;28;20596;-45
2022/10/12 01:50:55;;;;;;;16.40;14.27;;;14.90;99.20;;;;;;5093421;28;20214;-45
2022/10/12 01:53:27;;;;;;;16.03;14.27;;;14.90;99.20;;;;;;5093852;28;20432;-43
2022/10/12 01:56:19;;;;;;;16.27;14.60;;;14.90;99.20;;;;;;5095245;28;20569;-45
2022/10/12 01:59:20;;;;;;;14.90;13.33;;;14.90;99.30;;;;;;5096646;28;20476;-44
2022/10/12 02:02:06;;;;;;;19.00;15.30;;;14.90;99.30;;;;;;5081107;28;20678;-44
2022/10/12 02:04:48;;;;;;;16.17;14.47;;;14.90;99.30;;;;;;5079744;28;20443;-44
2022/10/12 02:07:21;;;;;;;15.50;13.90;;;14.90;99.30;;;;;;5096309;28;20438;-43
2022/10/12 02:09:47;;;;;;;15.27;13.70;;;14.90;99.30;;;;;;5094095;28;20750;-42
2022/10/12 02:12:16;;;;;;;17.80;14.17;;;14.90;99.40;;;;;;5094888;28;20489;-43
2022/10/12 02:14:49;;;;;;;16.03;14.33;;;14.90;99.40;;;;;;5094559;28;20237;-45
2022/10/12 02:17:16;;;;;;;17.40;13.80;;;14.90;99.40;;;;;;5094834;28;20513;-46
2022/10/12 02:19:46;;;;;;;17.73;14.23;;;14.90;99.70;;;;;;5096075;28;20400;-46
2022/10/12 02:22:13;;;;;;;15.63;14.03;;;14.90;99.50;;;;;;5096434;28;20471;-43
2022/10/12 02:24:41;;;;;;;15.30;13.80;;;14.90;99.40;;;;;;5095700;28;20403;-44
2022/10/12 02:27:08;;;;;;;18.10;14.53;;;14.90;99.50;;;;;;5095914;28;20408;-45
2022/10/12 02:29:39;;;;;;;15.80;14.20;;;14.90;99.50;;;;;;5096179;28;20422;-45
2022/10/12 02:32:27;;;;;;;17.17;15.47;;;15.00;99.50;;;;;;5095919;28;20411;-47
2022/10/12 02:35:04;;;;;;;16.30;14.40;;;15.00;99.50;;;;;;5095155;28;20430;-43
2022/10/12 02:37:45;;;;;;;16.37;14.87;;;15.00;99.50;;;;;;5096420;28;20765;-43
2022/10/12 02:40:16;;;;;;;17.37;14.23;;;15.00;99.50;;;;;;5096554;28;20427;-45
2022/10/12 02:42:47;;;;;;;19.70;14.70;;;15.00;99.50;;;;;;5096859;28;20713;-45
2022/10/12 02:45:13;;;;;;;16.50;14.80;;;15.00;99.60;;;;;;5095266;28;20434;-46
2022/10/12 02:47:39;;;;;;;15.50;13.90;;;15.00;99.60;;;;;;5096722;28;20418;-47
2022/10/12 02:50:07;;;;;;;15.97;14.40;;;15.00;99.60;;;;;;5095124;28;20895;-44
2022/10/12 02:52:32;;;;;;;17.00;15.40;;;15.00;99.50;;;;;;5095971;28;20424;-43
2022/10/12 02:54:58;;;;;;;17.90;16.07;;;15.00;99.50;;;;;;5095131;28;20812;-45
2022/10/12 02:57:24;;;;;;;16.13;14.43;;;15.00;99.60;;;;;;5094885;28;20228;-44
2022/10/12 02:59:49;;;;;;;18.80;16.90;;;15.00;99.50;;;;;;5095882;28;20165;-45
2022/10/12 03:02:15;;;;;;;19.03;17.00;;;15.00;99.60;;;;;;5093945;28;20293;-45
2022/10/12 03:04:41;;;;;;;18.57;16.77;;;14.90;99.50;;;;;;5095707;28;20404;-45
2022/10/12 03:07:07;;;;;;;22.33;19.00;;;15.00;99.60;;;;;;5095252;28;20177;-47
2022/10/12 03:09:32;;;;;;;22.60;20.20;;;14.90;99.60;;;;;;5094301;28;20422;-45
2022/10/12 03:11:58;;;;;;;20.90;18.73;;;15.00;99.60;;;;;;5094491;28;20517;-44
2022/10/12 03:14:25;;;;;;;20.93;18.70;;;15.00;99.60;;;;;;5094545;28;20178;-43
2022/10/12 03:16:51;;;;;;;21.50;19.30;;;15.00;99.60;;;;;;5095797;28;20303;-43
2022/10/12 03:19:17;;;;;;;21.20;19.00;;;15.00;99.60;;;;;;5096733;28;20434;-43
2022/10/12 03:21:43;;;;;;;21.17;19.00;;;15.00;99.60;;;;;;5095241;28;20427;-44
2022/10/12 03:24:09;;;;;;;21.63;19.33;;;15.00;99.60;;;;;;5095500;28;20439;-43
2022/10/12 03:26:35;;;;;;;19.47;17.17;;;15.00;99.60;;;;;;5096392;28;20193;-44
2022/10/12 03:29:01;;;;;;;23.60;18.80;;;15.00;99.60;;;;;;5096427;28;20677;-43
2022/10/12 03:31:26;;;;;;;21.40;19.23;;;15.00;99.60;;;;;;5095052;28;20246;-44
2022/10/12 03:33:52;;;;;;;21.23;18.90;;;15.00;99.70;;;;;;5095627;28;20212;-45
2022/10/12 03:36:18;;;;;;;22.47;19.80;;;15.00;99.60;;;;;;5095420;28;20629;-44
2022/10/12 03:38:44;;;;;;;20.90;18.80;;;15.00;99.60;;;;;;5094908;28;20246;-46
2022/10/12 03:41:09;;;;;;;22.80;18.63;;;15.00;99.60;;;;;;5094001;28;20637;-44
2022/10/12 03:43:35;;;;;;;21.60;19.13;;;15.00;99.60;;;;;;5095545;28;20193;-43
2022/10/12 03:46:00;;;;;;;23.03;20.73;;;15.00;99.60;;;;;;5094316;28;20176;-45
2022/10/12 03:48:26;;;;;;;21.37;19.27;;;15.00;99.60;;;;;;5092041;28;20260;-44
2022/10/12 03:50:52;;;;;;;18.93;17.23;;;15.00;99.60;;;;;;5092014;28;20410;-45
2022/10/12 03:53:18;;;;;;;21.90;19.53;;;15.00;99.60;;;;;;5090732;28;20177;-43
2022/10/12 03:55:44;;;;;;;21.23;19.03;;;15.00;99.60;;;;;;5089412;28;20225;-44
2022/10/12 03:58:11;;;;;;;21.40;19.30;;;15.00;99.60;;;;;;5090611;28;20489;-44
2022/10/12 04:00:36;;;;;;;21.50;19.30;;;14.90;99.60;;;;;;5093691;28;20411;-44
2022/10/12 04:03:02;;;;;;;21.70;19.43;;;14.90;99.60;;;;;;5096753;28;20466;-45
2022/10/12 04:05:28;;;;;;;20.30;18.30;;;14.90;99.60;;;;;;5095551;28;20168;-44
2022/10/12 04:07:54;;;;;;;23.57;21.07;;;14.90;99.60;;;;;;5097510;28;20179;-45
2022/10/12 04:10:20;;;;;;;21.83;18.63;;;14.90;99.60;;;;;;5097218;28;20975;-42
2022/10/12 04:12:46;;;;;;;20.10;18.03;;;14.90;99.60;;;;;;5093922;28;20281;-42
2022/10/12 04:15:12;;;;;;;23.70;21.30;;;14.90;99.60;;;;;;5094939;28;20692;-43
2022/10/12 04:17:38;;;;;;;24.60;21.90;;;14.90;99.60;;;;;;5095457;28;20255;-42
2022/10/12 04:20:04;;;;;;;28.33;22.23;;;14.90;99.70;;;;;;5094472;28;20418;-44
2022/10/12 04:22:30;;;;;;;24.20;21.70;;;14.90;99.70;;;;;;5093758;28;20192;-45
2022/10/12 04:24:55;;;;;;;23.07;20.67;;;14.90;99.70;;;;;;5093789;28;20413;-45
2022/10/12 04:27:21;;;;;;;28.83;22.53;;;14.90;99.70;;;;;;5094367;28;20216;-44
2022/10/12 04:29:47;;;;;;;27.53;23.30;;;14.90;99.70;;;;;;5095617;28;20174;-45
2022/10/12 04:32:13;;;;;;;25.57;21.90;;;14.90;99.70;;;;;;5093363;28;20196;-42
2022/10/12 04:34:38;;;;;;;25.27;22.37;;;14.90;99.80;;;;;;5094554;28;20173;-44
2022/10/12 04:37:04;;;;;;;28.77;24.40;;;14.90;99.80;;;;;;5095454;28;20200;-46
2022/10/12 04:39:30;;;;;;;26.37;23.00;;;14.90;99.80;;;;;;5095355;28;20175;-44
2022/10/12 04:41:55;;;;;;;27.50;23.00;;;14.90;99.80;;;;;;5096078;28;20204;-44
2022/10/12 04:44:21;;;;;;;25.43;22.23;;;14.90;99.90;;;;;;5095432;28;20215;-43
2022/10/12 04:46:47;;;;;;;27.70;22.97;;;14.90;99.90;;;;;;5097569;28;20197;-45
2022/10/12 04:49:12;;;;;;;28.43;25.00;;;14.90;99.90;;;;;;5095856;28;20173;-43
2022/10/12 04:51:38;;;;;;;24.13;21.63;;;14.80;99.90;;;;;;5093292;28;20476;-43
2022/10/12 04:54:04;;;;;;;25.03;22.47;;;14.80;99.90;;;;;;5092215;28;20181;-45
2022/10/12 04:56:29;;;;;;;24.47;21.40;;;14.80;99.90;;;;;;5090108;28;20236;-45
2022/10/12 04:58:55;;;;;;;22.63;20.23;;;14.80;99.90;;;;;;5088528;28;20177;-42
2022/10/12 05:01:21;;;;;;;24.50;21.80;;;14.80;99.90;;;;;;5088409;28;20521;-45
2022/10/12 05:03:46;;;;;;;21.33;19.23;;;14.80;99.90;;;;;;5087405;28;20189;-41
2022/10/12 05:06:12;;;;;;;21.67;19.57;;;14.80;99.90;;;;;;5092672;28;20257;-45
2022/10/12 05:08:38;;;;;;;20.80;18.70;;;14.80;99.90;;;;;;5093173;28;20459;-46
2022/10/12 05:11:04;;;;;;;22.63;20.40;;;14.80;99.90;;;;;;5092843;28;20173;-43
2022/10/12 05:13:30;;;;;;;21.17;19.07;;;14.70;99.90;;;;;;5093229;28;20176;-47
2022/10/12 05:15:55;;;;;;;21.40;19.33;;;14.70;99.90;;;;;;5094519;28;20550;-42
2022/10/12 05:18:21;;;;;;;21.70;19.57;;;14.60;99.90;;;;;;5091849;28;20419;-43
2022/10/12 05:20:47;;;;;;;21.83;19.83;;;14.60;99.90;;;;;;5091117;28;20177;-43
2022/10/12 05:23:13;;;;;;;19.97;17.83;;;14.50;99.90;;;;;;5086618;28;20415;-42
2022/10/12 05:25:39;;;;;;;20.70;18.80;;;14.50;99.90;;;;;;5090546;28;20173;-43
2022/10/12 05:28:05;;;;;;;21.57;19.50;;;14.50;99.90;;;;;;5088031;28;20525;-42
2022/10/12 05:30:31;;;;;;;23.50;21.20;;;14.50;99.90;;;;;;5085134;28;20193;-44
2022/10/12 05:32:57;;;;;;;21.07;18.93;;;14.40;99.90;;;;;;5087358;28;20431;-43
2022/10/12 05:35:23;;;;;;;22.17;20.07;;;14.40;99.90;;;;;;5089611;28;20454;-44
2022/10/12 05:37:48;;;;;;;20.80;18.77;;;14.40;99.90;;;;;;5090811;28;20197;-45
2022/10/12 05:40:15;;;;;;;21.37;19.13;;;14.40;99.90;;;;;;5092406;28;20188;-44
2022/10/12 05:42:43;;;;;;;22.10;19.87;;;14.40;99.90;;;;;;5090061;28;20179;-44
2022/10/12 05:45:10;;;;;;;19.87;18.07;;;14.40;99.90;;;;;;5089336;28;20415;-43
2022/10/12 05:47:35;;;;;;;19.47;17.73;;;14.40;99.90;;;;;;5090139;28;20439;-43
2022/10/12 05:50:01;;;;;;;19.40;17.60;;;14.40;99.90;;;;;;5087871;28;20618;-42
2022/10/12 05:52:27;;;;;;;21.20;19.27;;;14.40;99.90;;;;;;5085465;28;20443;-43
2022/10/12 05:54:53;;;;;;;19.80;17.97;;;14.50;99.90;;;;;;5088090;28;20462;-45
2022/10/12 05:57:19;;;;;;;18.30;16.60;;;14.50;99.90;;;;;;5087612;28;20479;-42
2022/10/12 05:59:44;;;;;;;19.87;18.07;;;14.50;99.90;;;;;;5085924;28;20337;-45
2022/10/12 06:02:14;;;;;;;20.57;18.57;;;14.50;99.90;;;;;;5088833;28;20168;-43
2022/10/12 06:04:40;;;;;;;17.00;15.40;;;14.50;99.90;;;;;;5090176;28;20326;-46
2022/10/12 06:07:06;;;;;;;19.70;17.90;;;14.50;99.90;;;;;;5090167;28;20520;-43
2022/10/12 06:09:31;;;;;;;18.63;16.83;;;14.60;99.90;;;;;;5092311;28;20221;-44
2022/10/12 06:11:57;;;;;;;20.10;18.20;;;14.60;99.90;;;;;;5093475;28;20203;-44
2022/10/12 06:14:23;;;;;;;18.60;16.80;;;14.60;99.90;;;;;;5092572;28;20212;-46
2022/10/12 06:16:49;;;;;;;19.50;17.50;;;14.60;99.90;;;;;;5090933;28;20474;-45
2022/10/12 06:19:14;;;;;;;19.53;17.63;;;14.60;99.90;;;;;;5091977;28;20181;-43
2022/10/12 06:21:40;;;;;;;19.20;17.30;;;14.70;99.90;;;;;;5093939;28;20173;-45
2022/10/12 06:24:06;;;;;;;19.40;17.50;;;14.70;99.90;;;;;;5090269;28;20627;-44
2022/10/12 06:26:34;;;;;;;20.27;18.37;;;14.70;99.90;;;;;;5092879;28;20203;-47
2022/10/12 06:28:59;;;;;;;20.63;18.67;;;14.70;99.90;;;;;;5092829;28;20450;-45
2022/10/12 06:31:27;;;;;;;21.20;19.10;;;14.80;99.90;;;;;;5091482;28;20454;-45
2022/10/12 06:33:54;;;;;;;18.30;16.67;;;14.80;99.90;;;;;;5093415;28;20176;-44
2022/10/12 06:36:20;;;;;;;18.97;17.00;;;14.80;99.90;;;;;;5096197;28;20467;-43
2022/10/12 06:38:45;;;;;;;19.20;17.40;;;14.90;99.90;;;;;;5093839;28;20429;-45
2022/10/12 06:41:11;;;;;;;20.37;18.37;;;14.90;99.90;;;;;;5079016;28;20181;-45
2022/10/12 06:43:37;;;;;;;19.00;17.23;;;15.00;99.90;;;;;;5073602;28;20679;-43
2022/10/12 06:46:03;;;;;;;19.10;17.27;;;15.00;99.90;;;;;;5072426;28;20242;-43
2022/10/12 06:48:29;;;;;;;20.57;18.77;;;15.10;99.90;;;;;;5074510;28;20450;-43
2022/10/12 06:50:56;;;;;;;17.97;16.17;;;15.10;99.90;;;;;;5073880;28;20182;-43
2022/10/12 06:53:22;;;;;;;17.53;15.83;;;15.20;99.90;;;;;;5074712;28;20698;-45
2022/10/12 06:55:48;;;;;;;18.23;16.43;;;15.30;99.90;;;;;;5074449;28;20474;-44
2022/10/12 06:58:13;;;;;;;17.17;15.63;;;15.30;99.80;;;;;;5073280;28;20229;-45
2022/10/12 07:00:39;;;;;;;17.50;15.80;;;15.40;99.70;;;;;;5073994;28;20470;-44
2022/10/12 07:03:05;;;;;;;18.57;16.87;;;15.40;99.60;;;;;;5072190;28;20173;-45
2022/10/12 07:05:30;;;;;;;18.27;16.60;;;15.50;99.60;;;;;;5064741;28;20169;-42
2022/10/12 07:07:56;;;;;;;19.30;17.37;;;15.50;99.50;;;;;;5082135;28;20418;-47
2022/10/12 07:10:23;;;;;;;18.47;16.70;;;15.50;99.40;;;;;;5093770;28;20184;-53
2022/10/12 07:12:49;;;;;;;18.50;16.90;;;15.60;99.40;;;;;;5094620;28;20260;-43
2022/10/12 07:15:15;;;;;;;17.40;15.70;;;15.60;99.30;;;;;;5093838;28;20582;-43
2022/10/12 07:17:40;;;;;;;18.60;16.90;;;15.70;99.30;;;;;;5093962;28;20262;-43
2022/10/12 07:20:06;;;;;;;16.90;15.40;;;15.70;99.20;;;;;;5094129;28;20177;-45
2022/10/12 07:22:32;;;;;;;17.97;16.37;;;15.70;99.10;;;;;;5094542;28;20165;-45
2022/10/12 07:24:58;;;;;;;17.33;15.53;;;15.80;99.10;;;;;;5093175;28;20540;-45
2022/10/12 07:27:23;;;;;;;17.57;15.97;;;15.80;99.00;;;;;;5092361;28;20181;-43
2022/10/12 07:29:49;;;;;;;18.80;17.10;;;15.90;99.00;;;;;;5092157;28;20181;-43
2022/10/12 07:32:15;;;;;;;16.67;15.27;;;15.90;98.90;;;;;;5093568;28;20251;-45
2022/10/12 07:34:43;;;;;;;19.03;17.30;;;16.00;98.90;;;;;;5094334;28;20473;-44
2022/10/12 07:37:09;;;;;;;17.40;15.80;;;16.00;98.80;;;;;;5097748;28;20212;-42
2022/10/12 07:39:34;;;;;;;18.00;16.40;;;16.10;98.80;;;;;;5096656;28;20429;-43
2022/10/12 07:42:00;;;;;;;17.00;15.40;;;16.10;98.70;;;;;;5094216;28;20313;-42
2022/10/12 07:44:27;;;;;;;17.77;16.07;;;16.10;98.60;;;;;;5092781;28;20212;-45
2022/10/12 07:46:53;;;;;;;17.90;16.17;;;16.20;98.60;;;;;;5096279;28;20559;-46
2022/10/12 07:49:19;;;;;;;17.60;16.03;;;16.20;98.50;;;;;;5094691;28;20419;-43
2022/10/12 07:51:45;;;;;;;19.93;15.80;;;16.30;98.40;;;;;;5094681;28;20456;-48
2022/10/12 07:54:11;;;;;;;17.70;15.67;;;16.40;98.40;;;;;;5097281;28;20274;-44
2022/10/12 07:56:37;;;;;;;19.80;15.43;;;16.50;98.30;;;;;;5097817;28;20513;-43
2022/10/12 07:59:03;;;;;;;17.00;15.40;;;16.60;98.10;;;;;;5095804;28;20529;-44
2022/10/12 08:01:29;;;;;;;15.30;13.80;;;16.80;98.00;;;;;;5097911;28;20425;-44
2022/10/12 08:03:56;;;;;;;17.87;15.30;;;16.90;97.80;;;;;;5097498;28;20430;-46
2022/10/12 08:06:23;;;;;;;15.53;14.20;;;17.10;97.60;;;;;;5094554;28;20427;-45
2022/10/12 08:08:50;;;;;;;16.00;14.40;;;17.20;97.30;;;;;;5094117;28;20821;-43
2022/10/12 08:11:16;;;;;;;16.03;14.43;;;17.40;97.00;;;;;;5095364;28;20971;-47
2022/10/12 08:13:42;;;;;;;15.00;13.50;;;17.50;96.80;;;;;;5094077;28;20429;-45
2022/10/12 08:16:15;;;;;;;15.33;13.90;;;17.60;96.60;;;;;;5094262;28;20470;-44
2022/10/12 08:18:41;;;;;;;15.83;14.13;;;17.70;96.40;;;;;;5093284;28;20735;-44
2022/10/12 08:21:09;;;;;;;13.63;10.67;;;17.80;96.10;;;;;;5092425;28;20833;-47
2022/10/12 08:23:35;;;;;;;11.93;8.63;;;17.80;96.20;;;;;;5096424;28;20411;-44
2022/10/12 08:26:01;;;;;;;9.23;8.33;;;17.90;96.70;;;;;;5096055;28;20721;-45
2022/10/12 08:28:27;;;;;;;10.90;9.80;;;18.00;97.10;;;;;;5096519;28;20840;-45
2022/10/12 08:30:53;;;;;;;9.90;9.00;;;18.10;97.30;;;;;;5095801;28;20512;-43
2022/10/12 08:33:19;;;;;;;11.27;8.70;;;18.20;97.30;;;;;;5097241;28;20424;-44
2022/10/12 08:35:45;;;;;;;10.13;9.03;;;18.30;97.20;;;;;;5097377;28;20176;-43
2022/10/12 08:38:11;;;;;;;10.90;9.80;;;18.40;96.90;;;;;;5095514;28;20202;-44
2022/10/12 08:40:59;;;;;;;10.10;9.17;;;18.50;96.70;;;;;;5095464;28;20422;-42
2022/10/12 08:43:43;;;;;;;13.13;11.80;;;18.60;96.50;;;;;;5095752;28;20408;-46
2022/10/12 08:46:09;;;;;;;11.27;10.17;;;18.60;96.10;;;;;;5094267;28;20427;-44
2022/10/12 08:49:13;;;;;;;16.30;11.83;;;18.70;95.80;;;;;;5095332;28;20420;-42
2022/10/12 08:51:46;;;;;;;15.00;13.23;;;18.70;95.40;;;;;;5096251;28;20172;-43
2022/10/12 08:54:13;;;;;;;15.63;14.10;;;18.60;94.90;;;;;;5095640;28;20850;-42
2022/10/12 08:56:40;;;;;;;16.63;14.97;;;18.50;94.70;;;;;;5095427;28;20496;-43
2022/10/12 08:59:12;;;;;;;14.90;13.50;;;18.40;94.50;;;;;;5095149;28;20411;-46
2022/10/12 09:02:29;;;;;;;15.67;14.10;;;18.40;94.50;;;;;;5094211;28;20441;-43
2022/10/12 09:04:59;;;;;;;15.40;13.67;;;18.30;94.50;;;;;;5061986;28;20427;-45
2022/10/12 09:07:36;;;;;;;18.40;16.27;;;18.30;94.50;;;;;;5095781;28;20743;-45
2022/10/12 09:10:09;;;;;;;17.17;15.33;;;18.30;94.60;;;;;;5078247;28;20411;-44
2022/10/12 09:12:54;;;;;;;17.77;16.07;;;18.20;94.40;;;;;;5096950;28;20423;-43
2022/10/12 09:15:24;;;;;;;17.53;15.73;;;18.30;94.50;;;;;;5097306;28;20422;-44
2022/10/12 09:17:55;;;;;;;17.00;14.93;;;18.30;94.40;;;;;;5097938;28;20537;-44
2022/10/12 09:20:30;;;;;;;15.20;13.70;;;18.30;94.40;;;;;;5095753;28;20406;-43
2022/10/12 09:23:16;;;;;;;18.57;16.70;;;18.40;94.60;;;;;;5097177;28;20487;-43
2022/10/12 09:25:42;;;;;;;15.87;14.37;;;18.50;93.90;;;;;;5096863;28;20506;-43
2022/10/12 09:28:26;;;;;;;16.50;14.93;;;18.50;93.60;;;;;;5095199;28;20523;-48
2022/10/12 09:30:59;;;;;;;15.10;13.50;;;18.50;93.40;;;;;;5091535;28;20580;-44
2022/10/12 09:33:30;;;;;;;16.03;14.33;;;18.50;93.10;;;;;;5094448;28;20411;-44
2022/10/12 09:35:55;;;;;;;15.60;13.73;;;18.40;92.90;;;;;;5095021;28;20483;-42
2022/10/12 09:38:23;;;;;;;16.40;13.90;;;18.40;92.90;;;;;;5095958;28;20410;-45
2022/10/12 09:40:49;;;;;;;14.27;12.77;;;18.40;92.90;;;;;;5095388;28;20183;-43
2022/10/12 09:43:15;;;;;;;16.53;12.70;;;18.40;92.80;;;;;;5096080;28;20433;-45
2022/10/12 09:45:41;;;;;;;18.13;13.07;;;18.40;92.80;;;;;;5094564;28;20689;-44
2022/10/12 09:48:08;;;;;;;17.37;14.17;;;18.50;92.90;;;;;;5091066;28;20521;-44
2022/10/12 09:50:50;;;;;;;14.30;12.80;;;18.50;92.80;;;;;;5076011;28;20420;-45
2022/10/12 09:53:21;;;;;;;14.70;13.30;;;18.40;92.70;;;;;;5081798;28;20494;-45
2022/10/12 09:55:56;;;;;;;16.77;13.70;;;18.50;92.70;;;;;;5077280;28;20431;-44
2022/10/12 09:58:24;;;;;;;13.87;12.43;;;18.50;92.50;;;;;;5093570;28;20435;-46
2022/10/12 10:01:12;;;;;;;14.50;13.00;;;18.50;92.50;;;;;;5091917;28;20419;-43
2022/10/12 10:03:37;;;;;;;14.90;12.87;;;18.60;92.40;;;;;;5093746;28;20392;-44
2022/10/12 10:06:04;;;;;;;17.97;13.43;;;18.60;92.30;;;;;;5075471;28;20712;-45
2022/10/12 10:08:39;;;;;;;13.63;11.20;;;18.60;92.10;;;;;;5075363;28;20485;-43
2022/10/12 10:11:13;;;;;;;16.03;12.37;;;18.60;92.00;;;;;;5094141;28;20510;-43
2022/10/12 10:13:51;;;;;;;14.37;12.70;;;18.70;91.90;;;;;;5094282;28;20638;-42
2022/10/12 10:16:17;;;;;;;15.20;13.33;;;18.80;91.90;;;;;;5094427;28;20463;-45
2022/10/12 10:18:52;;;;;;;12.27;11.07;;;18.90;91.70;;;;;;5086963;28;20857;-44
2022/10/12 10:21:35;;;;;;;12.70;9.47;;;18.90;91.60;;;;;;5092208;28;20420;-45
2022/10/12 10:24:04;;;;;;;12.57;11.20;;;19.00;91.60;;;;;;5093727;28;20411;-46
2022/10/12 10:26:50;;;;;;;13.10;11.47;;;19.10;91.40;;;;;;5092527;28;20677;-43
2022/10/12 10:29:20;;;;;;;11.67;10.53;;;19.20;91.30;;;;;;5091760;28;20413;-45
2022/10/12 10:31:47;;;;;;;12.40;10.50;;;19.30;91.10;;;;;;5092824;28;20848;-47
2022/10/12 10:34:15;;;;;;;14.43;10.00;;;19.50;91.00;;;;;;5092523;28;20425;-44
2022/10/12 10:36:50;;;;;;;13.00;11.40;;;19.60;90.90;;;;;;5094890;28;20451;-46
2022/10/12 10:39:25;;;;;;;11.50;10.30;;;19.70;90.60;;;;;;5094961;28;20435;-45
2022/10/12 10:41:52;;;;;;;12.03;9.83;;;19.90;90.50;;;;;;5093234;28;20424;-47
2022/10/12 10:44:17;;;;;;;11.03;9.93;;;20.00;90.30;;;;;;5089239;28;20408;-43
2022/10/12 10:46:44;;;;;;;15.40;10.73;;;20.20;90.10;;;;;;5091946;28;20450;-46
2022/10/12 10:49:34;;;;;;;11.47;9.23;;;20.30;89.70;;;;;;5089112;28;20184;-46
2022/10/12 10:52:00;;;;;;;11.17;9.77;;;20.40;89.30;;;;;;5091644;28;20437;-43
2022/10/12 10:54:28;;;;;;;12.23;10.67;;;20.50;88.70;;;;;;5091819;28;20497;-43
2022/10/12 10:57:03;;;;;;;10.20;9.30;;;20.60;88.30;;;;;;5090976;28;20577;-42
2022/10/12 10:59:57;;;;;;;11.73;10.53;;;20.70;87.90;;;;;;5090716;28;20466;-43
2022/10/12 11:02:47;;;;;;;14.57;11.00;;;20.80;87.40;;;;;;5091295;28;20435;-43
2022/10/12 11:05:23;;;;;;;13.63;10.10;;;20.90;86.60;;;;;;5091215;28;20492;-46
2022/10/12 11:07:57;;;;;;;11.33;10.13;;;20.90;85.80;;;;;;5074256;28;20423;-44
2022/10/12 11:10:33;;;;;;;10.73;9.23;;;21.00;85.30;;;;;;5092430;28;20544;-43
2022/10/12 11:13:14;;;;;;;10.90;9.87;;;21.10;85.10;;;;;;5092422;28;21617;-44
2022/10/12 11:16:06;;;;;;;12.10;9.70;;;21.10;84.50;;;;;;5098243;28;20494;-45
2022/10/12 11:18:45;;;;;;;10.90;9.70;;;21.10;84.20;;;;;;5097964;28;20539;-45
2022/10/12 11:21:16;;;;;;;11.37;10.27;;;21.20;84.00;;;;;;5100119;28;20419;-48
2022/10/12 11:23:53;;;;;;;11.83;10.50;;;21.20;83.70;;;;;;5098327;28;20437;-44
2022/10/12 11:26:40;;;;;;;10.70;9.10;;;21.30;83.50;;;;;;5094887;28;20705;-45
2022/10/12 11:29:07;;;;;;;12.30;9.03;;;21.30;83.10;;;;;;5078392;28;20876;-45
2022/10/12 11:31:36;;;;;;;14.13;10.00;;;21.40;82.60;;;;;;5063102;28;20528;-44
2022/10/12 11:34:06;;;;;;;15.33;10.30;;;21.40;82.00;;;;;;5076614;28;20617;-45
2022/10/12 11:36:33;;;;;;;11.47;9.50;;;21.50;82.10;;;;;;5075575;28;20492;-45
2022/10/12 11:39:02;;;;;;;10.03;8.40;;;21.50;81.60;;;;;;5088875;28;20436;-48
2022/10/12 11:41:41;;;;;;;10.53;9.47;;;21.60;81.60;;;;;;5096786;28;20459;-45
2022/10/12 11:44:37;;;;;;;12.77;10.20;;;21.70;81.10;;;;;;5092476;28;20515;-44
2022/10/12 11:47:30;;;;;;;13.17;9.30;;;21.80;80.30;;;;;;5098860;28;20473;-44
2022/10/12 11:50:22;;;;;;;10.20;9.10;;;22.00;80.40;;;;;;5099442;28;21033;-46
2022/10/12 11:52:50;;;;;;;11.20;8.80;;;22.20;79.80;;;;;;5099766;28;20418;-46
2022/10/12 11:55:36;;;;;;;13.07;10.90;;;22.40;78.60;;;;;;5098231;28;20621;-46
2022/10/12 11:58:14;;;;;;;8.93;8.00;;;22.60;77.90;;;;;;5099668;28;20921;-45
2022/10/12 12:01:07;;;;;;;12.03;10.53;;;22.80;76.70;;;;;;5080588;28;20462;-44
2022/10/12 12:03:59;;;;;;;10.73;8.40;;;22.90;75.90;;;;;;5098530;28;20404;-44
2022/10/12 12:06:46;;;;;;;11.23;8.33;;;23.00;75.60;;;;;;5098193;28;20408;-43
2022/10/12 12:09:31;;;;;;;12.90;9.43;;;23.20;75.40;;;;;;5099764;28;20426;-44
2022/10/12 12:12:12;;;;;;;9.60;8.60;;;23.40;74.40;;;;;;5099977;28;20534;-46
2022/10/12 12:14:46;;;;;;;13.83;8.43;;;23.50;73.20;;;;;;5100070;28;20468;-43
2022/10/12 12:17:17;;;;;;;10.67;9.57;;;23.60;72.60;;;;;;5100402;28;20583;-43
2022/10/12 12:19:45;;;;;;;10.70;9.60;;;23.60;72.10;;;;;;5099848;28;20499;-43
2022/10/12 12:22:20;;;;;;;12.57;8.80;;;23.70;71.40;;;;;;5097400;28;20433;-46
2022/10/12 12:24:57;;;;;;;9.83;8.90;;;23.80;71.30;;;;;;5095760;28;20436;-43
2022/10/12 12:27:32;;;;;;;9.30;8.50;;;23.80;70.70;;;;;;5093993;28;20440;-45
2022/10/12 12:30:00;;;;;;;10.80;8.20;;;23.80;70.40;;;;;;5095734;28;20881;-45
2022/10/12 12:32:26;;;;;;;9.20;8.23;;;23.90;70.40;;;;;;5094086;28;20433;-46
2022/10/12 12:34:56;;;;;;;9.50;7.73;;;24.00;70.40;;;;;;5093848;28;20723;-43
2022/10/12 12:37:25;;;;;;;8.80;7.73;;;24.20;70.10;;;;;;5093904;28;20529;-45
2022/10/12 12:39:53;;;;;;;9.90;8.90;;;24.40;69.70;;;;;;5085939;28;20432;-46
2022/10/12 12:42:23;;;;;;;11.10;7.50;;;24.70;68.20;;;;;;5080253;28;20442;-45
2022/10/12 12:44:48;;;;;;;10.03;8.17;;;25.20;67.40;;;;;;5095102;28;20814;-43